createdAt,value
2022-12-27T00:09:01.937Z,0.60
2022-12-27T00:19:03.200Z,1.10
2022-12-27T00:29:04.487Z,1.08
2022-12-27T00:39:05.754Z,1.00
2022-12-27T00:49:07.059Z,1.15
2022-12-27T00:59:08.368Z,1.17
2022-12-27T01:09:09.621Z,1.20
2022-12-27T01:19:10.957Z,1.60
2022-12-27T01:29:12.260Z,1.83
2022-12-27T01:39:13.538Z,1.42
2022-12-27T01:49:14.789Z,1.30
2022-12-27T01:59:16.085Z,1.67
2022-12-27T02:09:17.342Z,1.20
2022-12-27T02:19:18.620Z,1.30
2022-12-27T02:29:20.015Z,1.45
2022-12-27T02:39:21.277Z,1.48
2022-12-27T02:49:41.399Z,1.25
2022-12-27T03:00:02.649Z,1.40
2022-12-27T03:10:22.843Z,1.40
2022-12-27T03:20:42.738Z,1.33
2022-12-27T03:31:13.599Z,1.70
2022-12-27T03:41:33.636Z,1.30
2022-12-27T03:51:35.013Z,1.65
2022-12-27T04:01:36.419Z,2.10
2022-12-27T04:11:56.600Z,1.60
2022-12-27T04:22:16.310Z,2.30
2022-12-27T04:32:36.662Z,1.67
2022-12-27T04:43:00.978Z,2.00
2022-12-27T04:53:20.768Z,2.10
2022-12-27T05:03:22.090Z,3.28
2022-12-27T05:13:42.182Z,2.08
2022-12-27T05:24:05.604Z,2.50
2022-12-27T05:34:07.132Z,2.50
2022-12-27T05:44:08.374Z,2.90
2022-12-27T05:54:09.893Z,3.05
2022-12-27T06:04:11.236Z,2.95
2022-12-27T06:14:12.530Z,3.22
2022-12-27T06:24:13.813Z,2.85
2022-12-27T06:34:15.102Z,2.97
2022-12-27T06:44:16.387Z,3.40
2022-12-27T06:54:17.683Z,3.47
2022-12-27T07:04:18.963Z,4.13
2022-12-27T07:14:20.233Z,5.55
2022-12-27T07:24:21.518Z,5.07
2022-12-27T07:34:22.851Z,4.22
2022-12-27T07:44:24.107Z,3.58
2022-12-27T07:54:25.447Z,3.65
2022-12-27T08:04:26.739Z,5.75
2022-12-27T08:14:28.029Z,4.38
2022-12-27T08:24:29.309Z,4.40
2022-12-27T08:34:30.598Z,4.05
2022-12-27T08:44:31.926Z,3.13
2022-12-27T08:54:33.169Z,3.40
2022-12-27T09:04:34.481Z,3.58
2022-12-27T09:14:35.730Z,4.10
2022-12-27T09:24:37.004Z,2.83
2022-12-27T09:34:38.402Z,3.47
2022-12-27T09:44:39.740Z,3.28
2022-12-27T09:54:41.007Z,3.30
2022-12-27T10:05:17.713Z,2.38
2022-12-27T10:15:03.527Z,2.72
2022-12-27T10:25:04.789Z,3.00
2022-12-27T10:35:06.148Z,2.20
2022-12-27T10:45:07.409Z,2.60
2022-12-27T10:55:08.655Z,3.42
2022-12-27T11:05:09.989Z,2.58
2022-12-27T11:15:11.301Z,1.95
2022-12-27T11:25:12.561Z,1.80
2022-12-27T11:35:14.994Z,2.00
2022-12-27T11:45:16.330Z,2.35
2022-12-27T11:55:17.606Z,1.83
2022-12-27T12:05:18.908Z,1.90
2022-12-27T12:15:20.198Z,2.17
2022-12-27T12:25:21.482Z,1.88
2022-12-27T12:35:22.811Z,1.58
2022-12-27T12:45:24.101Z,1.55
2022-12-27T12:55:25.352Z,1.92
2022-12-27T13:05:26.635Z,3.25
2022-12-27T13:15:27.956Z,2.40
2022-12-27T13:25:29.377Z,2.15
2022-12-27T13:35:30.704Z,2.97
2022-12-27T13:45:32.004Z,1.90
2022-12-27T13:55:33.287Z,2.65
2022-12-27T14:05:34.568Z,2.22
2022-12-27T14:15:35.877Z,2.58
2022-12-27T14:25:37.245Z,2.58
2022-12-27T14:35:38.574Z,2.38
2022-12-27T14:45:39.840Z,3.13
2022-12-27T14:55:41.139Z,4.55
2022-12-27T15:05:42.498Z,10.48
2022-12-27T15:15:43.997Z,7.00
2022-12-27T15:25:45.296Z,6.85
2022-12-27T15:35:46.682Z,4.95
2022-12-27T15:45:47.950Z,6.40
2022-12-27T15:55:49.215Z,6.90
2022-12-27T16:05:52.379Z,11.07
2022-12-27T16:15:53.824Z,12.95
2022-12-27T16:25:55.126Z,16.42
2022-12-27T16:35:56.440Z,12.85
2022-12-27T16:45:58.849Z,13.32
2022-12-27T16:56:00.121Z,14.23
2022-12-27T17:16:22.795Z,16.55
2022-12-27T17:26:24.103Z,15.38
2022-12-27T17:36:25.402Z,11.60
2022-12-27T17:46:26.656Z,11.02
2022-12-27T17:56:46.897Z,12.15
2022-12-27T18:06:48.152Z,12.18
2022-12-27T18:16:49.457Z,11.00
2022-12-27T18:26:50.736Z,6.35
2022-12-27T18:36:52.035Z,11.75
2022-12-27T18:46:53.288Z,18.50
2022-12-27T18:56:54.533Z,28.20
2022-12-27T19:06:55.789Z,29.17
2022-12-27T19:16:57.149Z,25.60
2022-12-27T19:27:00.595Z,23.27
2022-12-27T19:37:02.096Z,16.02
2022-12-27T19:47:03.394Z,18.92
2022-12-27T19:57:04.683Z,19.38
2022-12-27T20:07:06.056Z,20.80
2022-12-27T20:17:07.323Z,23.08
2022-12-27T20:27:08.573Z,24.98
2022-12-27T20:37:10.797Z,23.92
2022-12-27T20:47:12.145Z,20.02
2022-12-27T20:57:13.403Z,20.10
2022-12-27T21:07:14.640Z,17.27
2022-12-27T21:17:16.751Z,16.33
2022-12-27T21:27:18.013Z,17.30
2022-12-27T21:37:19.278Z,18.00
2022-12-27T21:47:20.700Z,18.38
2022-12-27T21:57:21.967Z,17.90
2022-12-27T22:07:23.277Z,15.88
2022-12-27T22:17:24.556Z,17.05
2022-12-27T22:27:25.831Z,17.70
2022-12-27T22:37:27.098Z,16.75
2022-12-27T22:47:28.662Z,19.38
2022-12-27T22:57:30.035Z,18.45
2022-12-27T23:08:03.619Z,18.52
2022-12-27T23:17:53.059Z,18.67
2022-12-27T23:27:54.414Z,19.70
2022-12-27T23:37:55.693Z,19.60
2022-12-27T23:47:56.971Z,19.98
2022-12-27T23:57:58.262Z,19.42
